Impacts TAF Board
For situational awareness. Not to be used for flight planning purposes.
IDs:

KBHM - Birmingham Intl, AL, US

Issued at 1140 UTC 07 Dec 2021
Updated at 1723 UTC 07 Dec 2021
Potential Impact None Slight Moderate High
Time1653Z 07/18Z 07/19Z 07/20Z 07/21Z 07/22Z 07/23Z 08/00Z 08/01Z 08/02Z 08/03Z 08/04Z 08/05Z 08/06Z>>
Type OBS PRVL PRVL PRVL PRVL PRVL PRVL PRVL PRVL PRVL PRVL PRVL PRVL PRVL
VIS 10 >6 >6 >6 >6 >6 >6 >6 >6 >6 >6 >6 >6 >6
CIG 50 50 50 50 50 50 50 50 29 29 19 19 19 19
Cover BKN OVC OVC OVC OVC OVC OVC OVC OVC OVC OVC OVC OVC OVC
FltCat VFR VFR VFR VFR VFR VFR VFR VFR MVFR MVFR MVFR MVFR MVFR MVFR
WX -- -- -- -- -- -- -- -- -- -- -- -- -- --
WDir 110 60 60 60 60 60 60 60 VRB VRB VRB VRB VRB VRB
WSpd 4 5 5 5 5 5 5 5 0 0 0 0 0 0
WGst -- -- -- -- -- -- -- -- -- -- -- -- -- --
WSHgt -- -- -- -- -- -- -- -- -- -- -- -- -- --
WSDir -- -- -- -- -- -- -- -- -- -- -- -- -- --
WSSpd -- -- -- -- -- -- -- -- -- -- -- -- -- --
Raw TAF
KBHM 071140Z 0712/0812 36005KT P6SM SCT070
  FM071600 06005KT P6SM OVC050
  FM080100 00000KT P6SM OVC029
  FM080300 00000KT P6SM OVC019
  FM080900 00000KT P6SM OVC008 AMD NOT SKED


Raw METAR
KBHM 071653Z 11004KT 10SM BKN050 BKN100 11/M02 A3019 RMK AO2 SLP213 T01061017 $
KBHM 071553Z 08005KT 10SM OVC050 09/M02 A3020 RMK AO2 SLP217 T00941022 $
KBHM 071453Z 02005KT 10SM OVC050 07/M01 A3021 RMK AO2 SLP221 T00671006 52013 $

METAR Board
Radar Display
Forecast Discussion
For situational awareness. Not to be used for flight planning purposes.